sensor_id;sensor_type;location;lat;lon;timestamp;temperature;humidity
15700;DHT22;7950;42.744;23.174;2024-01-10T00:00:07;-4.60;99.90
15700;DHT22;7950;42.744;23.174;2024-01-10T00:02:37;-4.60;99.90
15700;DHT22;7950;42.744;23.174;2024-01-10T00:05:06;-4.60;99.90
15700;DHT22;7950;42.744;23.174;2024-01-10T00:07:36;-4.60;99.90
15700;DHT22;7950;42.744;23.174;2024-01-10T00:10:06;-4.60;99.90
15700;DHT22;7950;42.744;23.174;2024-01-10T00:12:35;-4.60;99.90
15700;DHT22;7950;42.744;23.174;2024-01-10T00:15:05;-4.60;99.90
15700;DHT22;7950;42.744;23.174;2024-01-10T00:17:34;-4.60;99.90
15700;DHT22;7950;42.744;23.174;2024-01-10T00:20:02;-4.50;99.90
15700;DHT22;7950;42.744;23.174;2024-01-10T00:22:32;-4.40;99.90
15700;DHT22;7950;42.744;23.174;2024-01-10T00:25:02;-4.50;99.90
15700;DHT22;7950;42.744;23.174;2024-01-10T00:27:31;-4.40;99.90
15700;DHT22;7950;42.744;23.174;2024-01-10T00:30:00;-4.40;99.90
15700;DHT22;7950;42.744;23.174;2024-01-10T00:32:29;-4.40;99.90
15700;DHT22;7950;42.744;23.174;2024-01-10T00:34:58;-4.40;99.90
15700;DHT22;7950;42.744;23.174;2024-01-10T00:37:27;-4.30;99.90
15700;DHT22;7950;42.744;23.174;2024-01-10T00:39:55;-4.30;99.90
15700;DHT22;7950;42.744;23.174;2024-01-10T00:42:25;-4.30;99.90
15700;DHT22;7950;42.744;23.174;2024-01-10T00:44:54;-4.30;99.90
15700;DHT22;7950;42.744;23.174;2024-01-10T00:47:22;-4.30;99.90
15700;DHT22;7950;42.744;23.174;2024-01-10T00:49:51;-4.20;99.90
15700;DHT22;7950;42.744;23.174;2024-01-10T00:52:20;-4.20;99.90
15700;DHT22;7950;42.744;23.174;2024-01-10T00:54:48;-4.20;99.90
15700;DHT22;7950;42.744;23.174;2024-01-10T00:57:17;-4.30;99.90
15700;DHT22;7950;42.744;23.174;2024-01-10T00:59:46;-4.30;99.90
15700;DHT22;7950;42.744;23.174;2024-01-10T01:02:15;-4.30;99.90
15700;DHT22;7950;42.744;23.174;2024-01-10T01:04:44;-4.30;99.90
15700;DHT22;7950;42.744;23.174;2024-01-10T01:07:12;-4.30;99.90
15700;DHT22;7950;42.744;23.174;2024-01-10T01:09:41;-4.30;99.90
15700;DHT22;7950;42.744;23.174;2024-01-10T01:12:09;-4.30;99.90
15700;DHT22;7950;42.744;23.174;2024-01-10T01:14:38;-4.40;99.90
15700;DHT22;7950;42.744;23.174;2024-01-10T01:17:08;-4.30;99.90
15700;DHT22;7950;42.744;23.174;2024-01-10T01:19:36;-4.30;99.90
15700;DHT22;7950;42.744;23.174;2024-01-10T01:22:05;-4.30;99.90
15700;DHT22;7950;42.744;23.174;2024-01-10T01:24:34;-4.30;99.90
15700;DHT22;7950;42.744;23.174;2024-01-10T01:27:03;-4.20;99.90
15700;DHT22;7950;42.744;23.174;2024-01-10T01:29:31;-4.30;99.90
15700;DHT22;7950;42.744;23.174;2024-01-10T01:32:00;-4.30;99.90
15700;DHT22;7950;42.744;23.174;2024-01-10T01:34:30;-4.20;99.90
15700;DHT22;7950;42.744;23.174;2024-01-10T01:36:58;-4.20;99.90
15700;DHT22;7950;42.744;23.174;2024-01-10T01:39:28;-4.10;99.90
15700;DHT22;7950;42.744;23.174;2024-01-10T01:41:56;-4.10;99.90
15700;DHT22;7950;42.744;23.174;2024-01-10T01:44:25;-4.10;99.90
15700;DHT22;7950;42.744;23.174;2024-01-10T01:46:53;-4.10;99.90
15700;DHT22;7950;42.744;23.174;2024-01-10T01:49:22;-4.10;99.90
15700;DHT22;7950;42.744;23.174;2024-01-10T01:51:53;-4.10;99.90
15700;DHT22;7950;42.744;23.174;2024-01-10T01:54:23;-4.10;99.90
15700;DHT22;7950;42.744;23.174;2024-01-10T01:56:52;-4.10;99.90
15700;DHT22;7950;42.744;23.174;2024-01-10T01:59:21;-4.10;99.90
15700;DHT22;7950;42.744;23.174;2024-01-10T02:01:50;-4.00;99.90
15700;DHT22;7950;42.744;23.174;2024-01-10T02:04:20;-4.00;99.90
15700;DHT22;7950;42.744;23.174;2024-01-10T02:06:49;-3.90;99.90
15700;DHT22;7950;42.744;23.174;2024-01-10T02:09:19;-3.90;99.90
15700;DHT22;7950;42.744;23.174;2024-01-10T02:11:48;-3.90;99.90
15700;DHT22;7950;42.744;23.174;2024-01-10T02:14:17;-4.00;99.90
15700;DHT22;7950;42.744;23.174;2024-01-10T02:16:46;-4.10;99.90
15700;DHT22;7950;42.744;23.174;2024-01-10T02:19:19;-4.20;99.90
15700;DHT22;7950;42.744;23.174;2024-01-10T02:21:48;-4.20;99.90
15700;DHT22;7950;42.744;23.174;2024-01-10T02:24:18;-4.10;99.90
15700;DHT22;7950;42.744;23.174;2024-01-10T02:26:49;-4.20;99.90
15700;DHT22;7950;42.744;23.174;2024-01-10T02:29:18;-4.20;99.90
15700;DHT22;7950;42.744;23.174;2024-01-10T02:31:46;-4.20;99.90
15700;DHT22;7950;42.744;23.174;2024-01-10T02:34:15;-4.20;99.90
15700;DHT22;7950;42.744;23.174;2024-01-10T02:36:44;-4.30;99.90
15700;DHT22;7950;42.744;23.174;2024-01-10T02:39:12;-4.30;99.90
15700;DHT22;7950;42.744;23.174;2024-01-10T02:41:41;-4.20;99.90
15700;DHT22;7950;42.744;23.174;2024-01-10T02:44:11;-4.20;99.90
15700;DHT22;7950;42.744;23.174;2024-01-10T02:46:41;-4.20;99.90
15700;DHT22;7950;42.744;23.174;2024-01-10T02:49:10;-4.30;99.90
15700;DHT22;7950;42.744;23.174;2024-01-10T02:51:38;-4.30;99.90
15700;DHT22;7950;42.744;23.174;2024-01-10T02:54:07;-4.40;99.90
15700;DHT22;7950;42.744;23.174;2024-01-10T02:56:35;-4.40;99.90
15700;DHT22;7950;42.744;23.174;2024-01-10T02:59:04;-4.40;99.90
15700;DHT22;7950;42.744;23.174;2024-01-10T03:01:34;-4.50;99.90
15700;DHT22;7950;42.744;23.174;2024-01-10T03:04:03;-4.50;99.90
15700;DHT22;7950;42.744;23.174;2024-01-10T03:06:31;-4.50;99.90
15700;DHT22;7950;42.744;23.174;2024-01-10T03:09:00;-4.50;99.90
15700;DHT22;7950;42.744;23.174;2024-01-10T03:11:29;-4.50;99.90
15700;DHT22;7950;42.744;23.174;2024-01-10T03:14:02;-4.40;99.90
15700;DHT22;7950;42.744;23.174;2024-01-10T03:16:36;-4.50;99.90
15700;DHT22;7950;42.744;23.174;2024-01-10T03:19:06;-4.50;99.90
15700;DHT22;7950;42.744;23.174;2024-01-10T03:21:34;-4.40;99.90
15700;DHT22;7950;42.744;23.174;2024-01-10T03:24:04;-4.50;99.90
15700;DHT22;7950;42.744;23.174;2024-01-10T03:26:33;-4.40;99.90
15700;DHT22;7950;42.744;23.174;2024-01-10T03:29:01;-4.50;99.90
15700;DHT22;7950;42.744;23.174;2024-01-10T03:31:31;-4.40;99.90
15700;DHT22;7950;42.744;23.174;2024-01-10T03:34:01;-4.50;99.90
15700;DHT22;7950;42.744;23.174;2024-01-10T03:36:29;-4.50;99.90
15700;DHT22;7950;42.744;23.174;2024-01-10T03:38:58;-4.40;99.90
15700;DHT22;7950;42.744;23.174;2024-01-10T03:41:27;-4.50;99.90
15700;DHT22;7950;42.744;23.174;2024-01-10T03:43:56;-4.40;99.90
15700;DHT22;7950;42.744;23.174;2024-01-10T03:46:24;-4.40;99.90
15700;DHT22;7950;42.744;23.174;2024-01-10T03:48:53;-4.40;99.90
15700;DHT22;7950;42.744;23.174;2024-01-10T03:51:23;-4.40;99.90
15700;DHT22;7950;42.744;23.174;2024-01-10T03:53:51;-4.40;99.90
15700;DHT22;7950;42.744;23.174;2024-01-10T03:56:22;-4.40;99.90
15700;DHT22;7950;42.744;23.174;2024-01-10T03:58:50;-4.40;99.90
15700;DHT22;7950;42.744;23.174;2024-01-10T04:01:22;-4.40;99.90
15700;DHT22;7950;42.744;23.174;2024-01-10T04:03:51;-4.40;99.90
15700;DHT22;7950;42.744;23.174;2024-01-10T04:06:20;-4.40;99.90
15700;DHT22;7950;42.744;23.174;2024-01-10T04:08:50;-4.30;99.90
15700;DHT22;7950;42.744;23.174;2024-01-10T04:11:18;-4.20;99.90
15700;DHT22;7950;42.744;23.174;2024-01-10T04:13:47;-4.30;99.90
15700;DHT22;7950;42.744;23.174;2024-01-10T04:16:15;-4.30;99.90
15700;DHT22;7950;42.744;23.174;2024-01-10T04:18:44;-4.30;99.90
15700;DHT22;7950;42.744;23.174;2024-01-10T04:21:13;-4.30;99.90
15700;DHT22;7950;42.744;23.174;2024-01-10T04:23:41;-4.30;99.90
15700;DHT22;7950;42.744;23.174;2024-01-10T04:26:11;-4.30;99.90
15700;DHT22;7950;42.744;23.174;2024-01-10T04:28:40;-4.20;99.90
15700;DHT22;7950;42.744;23.174;2024-01-10T04:31:09;-4.20;99.90
15700;DHT22;7950;42.744;23.174;2024-01-10T04:33:38;-4.10;99.90
15700;DHT22;7950;42.744;23.174;2024-01-10T04:36:07;-4.10;99.90
15700;DHT22;7950;42.744;23.174;2024-01-10T04:38:35;-4.10;99.90
15700;DHT22;7950;42.744;23.174;2024-01-10T04:41:04;-4.10;99.90
15700;DHT22;7950;42.744;23.174;2024-01-10T04:43:34;-4.00;99.90
15700;DHT22;7950;42.744;23.174;2024-01-10T04:46:02;-4.00;99.90
15700;DHT22;7950;42.744;23.174;2024-01-10T04:48:31;-4.00;99.90
15700;DHT22;7950;42.744;23.174;2024-01-10T04:51:00;-4.00;99.90
15700;DHT22;7950;42.744;23.174;2024-01-10T04:53:28;-4.00;99.90
15700;DHT22;7950;42.744;23.174;2024-01-10T04:55:57;-4.00;99.90
15700;DHT22;7950;42.744;23.174;2024-01-10T04:58:26;-4.00;99.90
15700;DHT22;7950;42.744;23.174;2024-01-10T05:00:57;-3.90;99.90
15700;DHT22;7950;42.744;23.174;2024-01-10T05:03:25;-3.90;99.90
15700;DHT22;7950;42.744;23.174;2024-01-10T05:05:54;-3.90;99.90
15700;DHT22;7950;42.744;23.174;2024-01-10T05:08:23;-3.90;99.90
15700;DHT22;7950;42.744;23.174;2024-01-10T05:10:51;-3.90;99.90
15700;DHT22;7950;42.744;23.174;2024-01-10T05:13:20;-3.90;99.90
15700;DHT22;7950;42.744;23.174;2024-01-10T05:15:48;-3.90;99.90
15700;DHT22;7950;42.744;23.174;2024-01-10T05:18:18;-3.90;99.90
15700;DHT22;7950;42.744;23.174;2024-01-10T05:20:47;-3.80;99.90
15700;DHT22;7950;42.744;23.174;2024-01-10T05:23:16;-3.80;99.90
15700;DHT22;7950;42.744;23.174;2024-01-10T05:25:44;-3.80;99.90
15700;DHT22;7950;42.744;23.174;2024-01-10T05:28:13;-3.80;99.90
15700;DHT22;7950;42.744;23.174;2024-01-10T05:30:42;-3.80;99.90
15700;DHT22;7950;42.744;23.174;2024-01-10T05:33:11;-3.70;99.90
15700;DHT22;7950;42.744;23.174;2024-01-10T05:35:41;-3.70;99.90
15700;DHT22;7950;42.744;23.174;2024-01-10T05:38:10;-3.70;99.90
15700;DHT22;7950;42.744;23.174;2024-01-10T05:40:38;-3.60;99.90
15700;DHT22;7950;42.744;23.174;2024-01-10T05:43:07;-3.60;99.90
15700;DHT22;7950;42.744;23.174;2024-01-10T05:45:37;-3.60;99.90
15700;DHT22;7950;42.744;23.174;2024-01-10T05:48:06;-3.60;99.90
15700;DHT22;7950;42.744;23.174;2024-01-10T05:50:35;-3.50;99.90
15700;DHT22;7950;42.744;23.174;2024-01-10T05:53:05;-3.50;99.90
15700;DHT22;7950;42.744;23.174;2024-01-10T05:55:35;-3.50;99.90
15700;DHT22;7950;42.744;23.174;2024-01-10T05:58:04;-3.50;99.90
15700;DHT22;7950;42.744;23.174;2024-01-10T06:00:32;-3.50;99.90
15700;DHT22;7950;42.744;23.174;2024-01-10T06:03:01;-3.50;99.90
15700;DHT22;7950;42.744;23.174;2024-01-10T06:05:29;-3.40;99.90
15700;DHT22;7950;42.744;23.174;2024-01-10T06:07:59;-3.40;99.90
15700;DHT22;7950;42.744;23.174;2024-01-10T06:10:32;-3.40;98.70
15700;DHT22;7950;42.744;23.174;2024-01-10T06:13:04;-3.50;98.90
15700;DHT22;7950;42.744;23.174;2024-01-10T06:15:32;-3.50;99.00
15700;DHT22;7950;42.744;23.174;2024-01-10T06:18:01;-3.40;98.90
15700;DHT22;7950;42.744;23.174;2024-01-10T06:20:30;-3.40;99.10
15700;DHT22;7950;42.744;23.174;2024-01-10T06:23:00;-3.40;99.50
15700;DHT22;7950;42.744;23.174;2024-01-10T06:25:28;-3.50;99.60
15700;DHT22;7950;42.744;23.174;2024-01-10T06:27:58;-3.40;99.20
15700;DHT22;7950;42.744;23.174;2024-01-10T06:30:27;-3.30;98.50
15700;DHT22;7950;42.744;23.174;2024-01-10T06:32:55;-3.40;99.30
15700;DHT22;7950;42.744;23.174;2024-01-10T06:35:24;-3.40;99.80
15700;DHT22;7950;42.744;23.174;2024-01-10T06:37:52;-3.40;99.60
15700;DHT22;7950;42.744;23.174;2024-01-10T06:40:21;-3.40;98.80
15700;DHT22;7950;42.744;23.174;2024-01-10T06:42:50;-3.40;98.80
15700;DHT22;7950;42.744;23.174;2024-01-10T06:45:20;-3.30;99.30
15700;DHT22;7950;42.744;23.174;2024-01-10T06:47:48;-3.30;98.50
15700;DHT22;7950;42.744;23.174;2024-01-10T06:50:17;-3.30;98.90
15700;DHT22;7950;42.744;23.174;2024-01-10T06:52:47;-3.20;99.50
15700;DHT22;7950;42.744;23.174;2024-01-10T06:55:16;-3.20;99.10
15700;DHT22;7950;42.744;23.174;2024-01-10T06:57:45;-3.10;98.70
15700;DHT22;7950;42.744;23.174;2024-01-10T07:00:16;-3.10;98.70
15700;DHT22;7950;42.744;23.174;2024-01-10T07:02:46;-3.10;98.50
15700;DHT22;7950;42.744;23.174;2024-01-10T07:05:16;-3.00;98.20
15700;DHT22;7950;42.744;23.174;2024-01-10T07:07:44;-2.90;97.80
15700;DHT22;7950;42.744;23.174;2024-01-10T07:10:13;-2.90;97.40
15700;DHT22;7950;42.744;23.174;2024-01-10T07:12:42;-2.90;97.70
15700;DHT22;7950;42.744;23.174;2024-01-10T07:15:10;-2.80;97.10
15700;DHT22;7950;42.744;23.174;2024-01-10T07:17:39;-2.70;95.50
15700;DHT22;7950;42.744;23.174;2024-01-10T07:20:10;-2.70;95.30
15700;DHT22;7950;42.744;23.174;2024-01-10T07:22:40;-2.60;95.40
15700;DHT22;7950;42.744;23.174;2024-01-10T07:25:11;-2.50;95.70
15700;DHT22;7950;42.744;23.174;2024-01-10T07:27:41;-2.50;95.90
15700;DHT22;7950;42.744;23.174;2024-01-10T07:30:10;-2.50;95.50
15700;DHT22;7950;42.744;23.174;2024-01-10T07:32:41;-2.50;95.30
15700;DHT22;7950;42.744;23.174;2024-01-10T07:35:12;-2.40;94.50
15700;DHT22;7950;42.744;23.174;2024-01-10T07:37:42;-2.30;94.10
15700;DHT22;7950;42.744;23.174;2024-01-10T07:40:11;-2.30;94.30
15700;DHT22;7950;42.744;23.174;2024-01-10T07:42:41;-2.20;94.00
15700;DHT22;7950;42.744;23.174;2024-01-10T07:45:10;-2.20;93.50
15700;DHT22;7950;42.744;23.174;2024-01-10T07:47:39;-2.00;91.80
15700;DHT22;7950;42.744;23.174;2024-01-10T07:50:09;-1.90;91.80
15700;DHT22;7950;42.744;23.174;2024-01-10T07:52:42;-1.90;91.60
15700;DHT22;7950;42.744;23.174;2024-01-10T07:55:13;-1.80;91.20
15700;DHT22;7950;42.744;23.174;2024-01-10T07:57:43;-1.70;90.30
15700;DHT22;7950;42.744;23.174;2024-01-10T08:00:12;-1.40;89.40
15700;DHT22;7950;42.744;23.174;2024-01-10T08:02:42;-1.00;84.90
15700;DHT22;7950;42.744;23.174;2024-01-10T08:05:12;-0.70;83.90
15700;DHT22;7950;42.744;23.174;2024-01-10T08:07:41;-0.40;81.90
15700;DHT22;7950;42.744;23.174;2024-01-10T08:10:10;-0.20;78.20
15700;DHT22;7950;42.744;23.174;2024-01-10T08:12:40;-0.10;75.60
15700;DHT22;7950;42.744;23.174;2024-01-10T08:15:09;-0.30;75.90
15700;DHT22;7950;42.744;23.174;2024-01-10T08:17:38;-0.30;75.60
15700;DHT22;7950;42.744;23.174;2024-01-10T08:20:08;-0.30;76.50
15700;DHT22;7950;42.744;23.174;2024-01-10T08:22:39;-0.10;76.70
15700;DHT22;7950;42.744;23.174;2024-01-10T08:25:11;0.10;74.90
15700;DHT22;7950;42.744;23.174;2024-01-10T08:27:39;0.40;75.70
15700;DHT22;7950;42.744;23.174;2024-01-10T08:30:11;0.60;71.00
15700;DHT22;7950;42.744;23.174;2024-01-10T08:32:40;1.20;69.90
15700;DHT22;7950;42.744;23.174;2024-01-10T08:35:09;2.00;68.70
15700;DHT22;7950;42.744;23.174;2024-01-10T08:37:39;2.90;67.00
15700;DHT22;7950;42.744;23.174;2024-01-10T08:40:11;4.80;64.60
15700;DHT22;7950;42.744;23.174;2024-01-10T08:42:42;6.40;58.10
15700;DHT22;7950;42.744;23.174;2024-01-10T08:45:11;8.20;54.80
15700;DHT22;7950;42.744;23.174;2024-01-10T08:47:39;9.50;49.20
15700;DHT22;7950;42.744;23.174;2024-01-10T08:50:08;10.60;46.10
15700;DHT22;7950;42.744;23.174;2024-01-10T08:52:39;11.40;43.00
15700;DHT22;7950;42.744;23.174;2024-01-10T08:55:08;11.70;40.80
15700;DHT22;7950;42.744;23.174;2024-01-10T08:57:40;12.30;39.10
15700;DHT22;7950;42.744;23.174;2024-01-10T09:00:09;12.30;38.80
15700;DHT22;7950;42.744;23.174;2024-01-10T09:02:40;12.80;38.30
15700;DHT22;7950;42.744;23.174;2024-01-10T09:05:09;12.80;37.80
15700;DHT22;7950;42.744;23.174;2024-01-10T09:07:40;13.50;36.50
15700;DHT22;7950;42.744;23.174;2024-01-10T09:10:09;13.70;35.90
15700;DHT22;7950;42.744;23.174;2024-01-10T09:12:38;12.30;35.80
15700;DHT22;7950;42.744;23.174;2024-01-10T09:15:10;11.00;37.70
15700;DHT22;7950;42.744;23.174;2024-01-10T09:17:41;9.70;39.20
15700;DHT22;7950;42.744;23.174;2024-01-10T09:20:11;8.70;40.80
15700;DHT22;7950;42.744;23.174;2024-01-10T09:22:42;8.10;41.40
15700;DHT22;7950;42.744;23.174;2024-01-10T09:25:10;7.40;41.50
15700;DHT22;7950;42.744;23.174;2024-01-10T09:39:31;6.80;40.80
15700;DHT22;7950;42.744;23.174;2024-01-10T09:42:00;5.30;40.30
15700;DHT22;7950;42.744;23.174;2024-01-10T09:44:30;5.10;40.50
15700;DHT22;7950;42.744;23.174;2024-01-10T09:47:00;5.30;41.90
15700;DHT22;7950;42.744;23.174;2024-01-10T09:49:29;5.30;42.80
15700;DHT22;7950;42.744;23.174;2024-01-10T09:51:59;5.50;44.80
15700;DHT22;7950;42.744;23.174;2024-01-10T09:54:34;5.70;45.20
15700;DHT22;7950;42.744;23.174;2024-01-10T09:57:06;5.70;45.10
15700;DHT22;7950;42.744;23.174;2024-01-10T09:59:36;5.70;45.20
15700;DHT22;7950;42.744;23.174;2024-01-10T10:02:05;5.70;45.50
15700;DHT22;7950;42.744;23.174;2024-01-10T10:04:36;5.70;46.60
15700;DHT22;7950;42.744;23.174;2024-01-10T10:07:07;5.60;46.50
15700;DHT22;7950;42.744;23.174;2024-01-10T10:09:38;5.50;45.70
15700;DHT22;7950;42.744;23.174;2024-01-10T10:12:06;5.50;45.50
15700;DHT22;7950;42.744;23.174;2024-01-10T10:14:35;5.30;44.90
15700;DHT22;7950;42.744;23.174;2024-01-10T10:17:17;5.30;44.60
15700;DHT22;7950;42.744;23.174;2024-01-10T10:19:46;5.30;44.40
15700;DHT22;7950;42.744;23.174;2024-01-10T10:22:14;5.00;43.30
15700;DHT22;7950;42.744;23.174;2024-01-10T10:24:48;4.70;42.70
15700;DHT22;7950;42.744;23.174;2024-01-10T10:27:16;4.50;42.90
15700;DHT22;7950;42.744;23.174;2024-01-10T10:29:45;4.10;42.60
15700;DHT22;7950;42.744;23.174;2024-01-10T10:32:16;3.50;43.10
15700;DHT22;7950;42.744;23.174;2024-01-10T10:34:45;3.10;44.50
15700;DHT22;7950;42.744;23.174;2024-01-10T10:37:14;3.00;45.70
15700;DHT22;7950;42.744;23.174;2024-01-10T10:39:44;3.10;47.20
15700;DHT22;7950;42.744;23.174;2024-01-10T10:42:14;3.10;47.80
15700;DHT22;7950;42.744;23.174;2024-01-10T10:44:46;3.20;48.50
15700;DHT22;7950;42.744;23.174;2024-01-10T10:47:19;3.40;48.90
15700;DHT22;7950;42.744;23.174;2024-01-10T10:49:52;3.40;49.00
15700;DHT22;7950;42.744;23.174;2024-01-10T10:52:23;3.30;48.90
15700;DHT22;7950;42.744;23.174;2024-01-10T10:54:56;3.30;49.50
15700;DHT22;7950;42.744;23.174;2024-01-10T10:57:26;3.30;49.20
15700;DHT22;7950;42.744;23.174;2024-01-10T10:59:55;3.00;49.20
15700;DHT22;7950;42.744;23.174;2024-01-10T11:02:26;2.80;49.40
15700;DHT22;7950;42.744;23.174;2024-01-10T11:04:58;2.70;49.10
15700;DHT22;7950;42.744;23.174;2024-01-10T11:07:30;2.60;50.10
15700;DHT22;7950;42.744;23.174;2024-01-10T11:10:02;2.60;50.20
15700;DHT22;7950;42.744;23.174;2024-01-10T11:12:48;2.80;50.40
15700;DHT22;7950;42.744;23.174;2024-01-10T11:15:38;2.90;49.90
15700;DHT22;7950;42.744;23.174;2024-01-10T11:18:40;2.90;50.10
15700;DHT22;7950;42.744;23.174;2024-01-10T11:21:28;2.90;50.50
15700;DHT22;7950;42.744;23.174;2024-01-10T11:24:04;3.00;49.60
15700;DHT22;7950;42.744;23.174;2024-01-10T11:26:38;3.00;49.60
15700;DHT22;7950;42.744;23.174;2024-01-10T11:29:07;3.10;50.20
15700;DHT22;7950;42.744;23.174;2024-01-10T11:31:39;3.30;50.80
15700;DHT22;7950;42.744;23.174;2024-01-10T11:34:08;3.40;50.10
15700;DHT22;7950;42.744;23.174;2024-01-10T11:36:40;3.40;50.30
15700;DHT22;7950;42.744;23.174;2024-01-10T11:39:41;3.50;50.40
15700;DHT22;7950;42.744;23.174;2024-01-10T11:42:21;3.60;50.00
15700;DHT22;7950;42.744;23.174;2024-01-10T11:44:51;3.60;50.20
15700;DHT22;7950;42.744;23.174;2024-01-10T11:47:20;3.50;50.40
15700;DHT22;7950;42.744;23.174;2024-01-10T11:49:56;3.50;50.90
15700;DHT22;7950;42.744;23.174;2024-01-10T11:52:32;3.20;50.00
15700;DHT22;7950;42.744;23.174;2024-01-10T11:55:02;3.00;50.20
15700;DHT22;7950;42.744;23.174;2024-01-10T11:57:35;2.80;50.60
15700;DHT22;7950;42.744;23.174;2024-01-10T12:00:06;2.90;51.10
15700;DHT22;7950;42.744;23.174;2024-01-10T12:02:36;2.90;51.00
15700;DHT22;7950;42.744;23.174;2024-01-10T12:05:07;2.90;51.30
15700;DHT22;7950;42.744;23.174;2024-01-10T12:07:37;3.10;51.60
15700;DHT22;7950;42.744;23.174;2024-01-10T12:10:07;3.20;52.10
15700;DHT22;7950;42.744;23.174;2024-01-10T12:12:38;3.30;52.70
15700;DHT22;7950;42.744;23.174;2024-01-10T12:15:07;3.40;53.20
15700;DHT22;7950;42.744;23.174;2024-01-10T12:17:39;3.20;52.20
15700;DHT22;7950;42.744;23.174;2024-01-10T12:20:08;3.20;52.60
15700;DHT22;7950;42.744;23.174;2024-01-10T12:22:37;3.20;52.80
15700;DHT22;7950;42.744;23.174;2024-01-10T12:25:06;3.20;52.50
15700;DHT22;7950;42.744;23.174;2024-01-10T12:27:35;3.20;52.60
15700;DHT22;7950;42.744;23.174;2024-01-10T12:30:07;3.20;53.00
15700;DHT22;7950;42.744;23.174;2024-01-10T12:32:36;3.30;53.60
15700;DHT22;7950;42.744;23.174;2024-01-10T12:35:05;3.50;54.10
15700;DHT22;7950;42.744;23.174;2024-01-10T12:37:34;3.60;54.30
15700;DHT22;7950;42.744;23.174;2024-01-10T12:40:04;3.70;58.80
15700;DHT22;7950;42.744;23.174;2024-01-10T12:42:37;3.80;56.90
15700;DHT22;7950;42.744;23.174;2024-01-10T12:45:20;3.90;55.90
15700;DHT22;7950;42.744;23.174;2024-01-10T12:47:49;3.90;55.20
15700;DHT22;7950;42.744;23.174;2024-01-10T12:50:20;3.90;54.60
15700;DHT22;7950;42.744;23.174;2024-01-10T12:52:49;4.00;54.80
15700;DHT22;7950;42.744;23.174;2024-01-10T12:55:17;4.00;55.60
15700;DHT22;7950;42.744;23.174;2024-01-10T12:57:46;4.10;55.10
15700;DHT22;7950;42.744;23.174;2024-01-10T13:00:16;4.10;55.10
15700;DHT22;7950;42.744;23.174;2024-01-10T13:02:46;4.00;54.80
15700;DHT22;7950;42.744;23.174;2024-01-10T13:05:14;4.10;54.90
15700;DHT22;7950;42.744;23.174;2024-01-10T13:07:43;4.00;54.30
15700;DHT22;7950;42.744;23.174;2024-01-10T13:10:13;4.00;54.30
15700;DHT22;7950;42.744;23.174;2024-01-10T13:12:41;3.90;54.80
15700;DHT22;7950;42.744;23.174;2024-01-10T13:15:10;3.90;55.30
15700;DHT22;7950;42.744;23.174;2024-01-10T13:17:40;3.90;55.30
15700;DHT22;7950;42.744;23.174;2024-01-10T13:20:09;4.00;55.10
15700;DHT22;7950;42.744;23.174;2024-01-10T13:22:39;3.90;55.30
15700;DHT22;7950;42.744;23.174;2024-01-10T13:25:07;3.90;55.50
15700;DHT22;7950;42.744;23.174;2024-01-10T13:27:36;3.90;55.70
15700;DHT22;7950;42.744;23.174;2024-01-10T13:30:06;3.90;55.80
15700;DHT22;7950;42.744;23.174;2024-01-10T13:32:35;3.90;55.40
15700;DHT22;7950;42.744;23.174;2024-01-10T13:35:06;3.80;55.50
15700;DHT22;7950;42.744;23.174;2024-01-10T13:37:35;3.70;55.90
15700;DHT22;7950;42.744;23.174;2024-01-10T13:40:05;3.60;56.30
15700;DHT22;7950;42.744;23.174;2024-01-10T13:42:36;3.70;56.30
15700;DHT22;7950;42.744;23.174;2024-01-10T13:45:05;3.70;56.10
15700;DHT22;7950;42.744;23.174;2024-01-10T13:47:38;3.60;55.90
15700;DHT22;7950;42.744;23.174;2024-01-10T13:50:09;3.60;56.40
15700;DHT22;7950;42.744;23.174;2024-01-10T13:52:38;3.50;56.70
15700;DHT22;7950;42.744;23.174;2024-01-10T13:55:07;3.50;56.60
15700;DHT22;7950;42.744;23.174;2024-01-10T13:57:36;3.40;56.50
15700;DHT22;7950;42.744;23.174;2024-01-10T14:00:06;3.40;57.10
15700;DHT22;7950;42.744;23.174;2024-01-10T14:02:35;3.40;57.60
15700;DHT22;7950;42.744;23.174;2024-01-10T14:05:05;3.30;57.90
15700;DHT22;7950;42.744;23.174;2024-01-10T14:07:35;3.30;58.20
15700;DHT22;7950;42.744;23.174;2024-01-10T14:10:05;3.20;58.40
15700;DHT22;7950;42.744;23.174;2024-01-10T14:12:35;3.20;58.50
15700;DHT22;7950;42.744;23.174;2024-01-10T14:15:05;3.20;58.40
15700;DHT22;7950;42.744;23.174;2024-01-10T14:17:33;3.10;58.00
15700;DHT22;7950;42.744;23.174;2024-01-10T14:20:02;3.00;57.60
15700;DHT22;7950;42.744;23.174;2024-01-10T14:22:37;2.80;57.80
15700;DHT22;7950;42.744;23.174;2024-01-10T14:25:06;2.60;57.90
15700;DHT22;7950;42.744;23.174;2024-01-10T14:27:37;2.50;58.50
15700;DHT22;7950;42.744;23.174;2024-01-10T14:30:07;2.40;58.70
15700;DHT22;7950;42.744;23.174;2024-01-10T14:32:36;2.20;59.00
15700;DHT22;7950;42.744;23.174;2024-01-10T14:35:07;2.00;59.60
15700;DHT22;7950;42.744;23.174;2024-01-10T14:37:38;1.80;60.80
15700;DHT22;7950;42.744;23.174;2024-01-10T14:40:07;1.70;61.70
15700;DHT22;7950;42.744;23.174;2024-01-10T14:42:37;1.60;62.30
15700;DHT22;7950;42.744;23.174;2024-01-10T14:45:06;1.40;63.60
15700;DHT22;7950;42.744;23.174;2024-01-10T14:47:35;1.30;64.50
15700;DHT22;7950;42.744;23.174;2024-01-10T14:50:05;1.10;65.20
15700;DHT22;7950;42.744;23.174;2024-01-10T14:52:34;1.00;66.20
15700;DHT22;7950;42.744;23.174;2024-01-10T14:55:04;0.90;67.00
15700;DHT22;7950;42.744;23.174;2024-01-10T14:57:33;0.90;67.80
15700;DHT22;7950;42.744;23.174;2024-01-10T15:00:02;0.70;68.50
15700;DHT22;7950;42.744;23.174;2024-01-10T15:02:32;0.60;69.20
15700;DHT22;7950;42.744;23.174;2024-01-10T15:05:05;0.60;71.10
15700;DHT22;7950;42.744;23.174;2024-01-10T15:07:34;0.40;72.60
15700;DHT22;7950;42.744;23.174;2024-01-10T15:10:05;0.30;73.40
15700;DHT22;7950;42.744;23.174;2024-01-10T15:12:34;0.30;73.90
15700;DHT22;7950;42.744;23.174;2024-01-10T15:15:03;0.10;74.00
15700;DHT22;7950;42.744;23.174;2024-01-10T15:17:32;0.00;74.10
15700;DHT22;7950;42.744;23.174;2024-01-10T15:20:01;0.00;74.20
15700;DHT22;7950;42.744;23.174;2024-01-10T15:22:29;-0.10;74.10
15700;DHT22;7950;42.744;23.174;2024-01-10T15:24:58;-0.20;74.60
15700;DHT22;7950;42.744;23.174;2024-01-10T15:27:29;-0.30;75.10
15700;DHT22;7950;42.744;23.174;2024-01-10T15:29:59;-0.40;75.70
15700;DHT22;7950;42.744;23.174;2024-01-10T15:32:43;-0.50;76.80
15700;DHT22;7950;42.744;23.174;2024-01-10T15:35:11;-0.60;79.40
15700;DHT22;7950;42.744;23.174;2024-01-10T15:37:40;-0.60;81.20
15700;DHT22;7950;42.744;23.174;2024-01-10T15:40:10;-0.70;83.40
15700;DHT22;7950;42.744;23.174;2024-01-10T15:42:42;-0.70;84.70
15700;DHT22;7950;42.744;23.174;2024-01-10T15:45:11;-0.80;85.70
15700;DHT22;7950;42.744;23.174;2024-01-10T15:47:41;-0.90;87.10
15700;DHT22;7950;42.744;23.174;2024-01-10T15:50:11;-1.00;90.20
15700;DHT22;7950;42.744;23.174;2024-01-10T15:52:39;-1.00;91.40
15700;DHT22;7950;42.744;23.174;2024-01-10T15:55:08;-1.10;92.80
15700;DHT22;7950;42.744;23.174;2024-01-10T15:57:37;-1.20;93.70
15700;DHT22;7950;42.744;23.174;2024-01-10T16:00:09;-1.30;95.70
15700;DHT22;7950;42.744;23.174;2024-01-10T16:02:39;-1.50;98.00
15700;DHT22;7950;42.744;23.174;2024-01-10T16:05:08;-1.50;99.70